createdAt,value
2023-07-23T00:03:01.535Z,24.10
2023-07-23T00:08:07.207Z,24.10
2023-07-23T00:13:10.738Z,24.10
2023-07-23T00:18:14.279Z,24.11
2023-07-23T00:23:19.146Z,24.10
2023-07-23T00:28:22.790Z,24.09
2023-07-23T00:33:26.210Z,24.08
2023-07-23T00:38:31.150Z,24.08
2023-07-23T00:43:34.716Z,24.09
2023-07-23T00:48:38.223Z,24.08
2023-07-23T00:53:43.110Z,24.09
2023-07-23T00:58:48.273Z,24.08
2023-07-23T01:03:53.153Z,24.08
2023-07-23T01:19:41.111Z,24.06
2023-07-23T01:24:45.970Z,24.06
2023-07-23T01:29:49.567Z,24.07
2023-07-23T01:34:53.949Z,24.05
2023-07-23T01:45:19.737Z,24.04
2023-07-23T01:50:23.221Z,24.04
2023-07-23T01:55:28.028Z,24.07
2023-07-23T02:00:31.558Z,24.06
2023-07-23T02:05:35.891Z,24.06
2023-07-23T02:10:40.723Z,24.05
2023-07-23T02:15:44.422Z,24.04
2023-07-23T02:20:47.861Z,24.03
2023-07-23T02:25:52.786Z,24.02
2023-07-23T02:30:59.380Z,24.01
2023-07-23T02:36:02.831Z,24.02
2023-07-23T02:41:08.738Z,24.00
2023-07-23T02:46:12.169Z,23.99
2023-07-23T02:51:15.625Z,23.98
2023-07-23T02:56:21.500Z,23.98
2023-07-23T03:01:24.967Z,23.98
2023-07-23T03:06:28.717Z,23.98
2023-07-23T03:11:34.010Z,23.97
2023-07-23T03:16:39.756Z,23.97
2023-07-23T03:21:44.097Z,23.94
2023-07-23T03:26:48.940Z,23.95
2023-07-23T03:31:52.443Z,23.93
2023-07-23T03:36:55.903Z,23.93
2023-07-23T03:42:00.802Z,23.92
2023-07-23T03:47:06.507Z,23.93
2023-07-23T03:52:10.817Z,23.91
2023-07-23T03:57:15.668Z,23.89
2023-07-23T04:02:19.150Z,23.88
2023-07-23T04:07:22.604Z,23.88
2023-07-23T04:12:27.462Z,23.87
2023-07-23T04:17:30.950Z,23.86
2023-07-23T04:22:34.397Z,23.83
2023-07-23T04:27:39.233Z,23.85
2023-07-23T04:32:42.700Z,23.82
2023-07-23T04:37:46.178Z,23.81
2023-07-23T04:42:51.046Z,23.82
2023-07-23T04:47:54.541Z,23.80
2023-07-23T04:52:58.071Z,23.80
2023-07-23T04:58:03.024Z,23.77
2023-07-23T05:03:06.557Z,23.76
2023-07-23T05:08:10.064Z,23.76
2023-07-23T05:13:15.841Z,23.74
2023-07-23T05:18:20.057Z,23.73
2023-07-23T05:23:24.251Z,23.72
2023-07-23T05:28:29.139Z,23.71
2023-07-23T05:33:32.998Z,23.72
2023-07-23T05:38:36.519Z,23.71
2023-07-23T05:49:02.234Z,23.70
2023-07-23T05:54:05.674Z,23.68
2023-07-23T05:59:10.494Z,23.58
2023-07-23T06:04:13.953Z,23.53
2023-07-23T06:09:18.728Z,23.57
2023-07-23T06:14:23.728Z,23.57
2023-07-23T06:19:27.201Z,23.56
2023-07-23T06:24:30.743Z,23.55
2023-07-23T06:29:35.771Z,23.55
2023-07-23T06:40:00.195Z,23.56
2023-07-23T06:45:05.721Z,23.60
2023-07-23T06:50:09.901Z,23.59
2023-07-23T06:55:13.430Z,23.58
2023-07-23T07:00:18.374Z,23.57
2023-07-23T07:05:21.881Z,23.56
2023-07-23T07:10:25.349Z,23.58
2023-07-23T07:15:30.196Z,23.59
2023-07-23T07:20:33.783Z,23.60
2023-07-23T07:25:38.723Z,23.60
2023-07-23T07:30:43.673Z,23.60
2023-07-23T07:35:47.149Z,23.65
2023-07-23T07:40:50.969Z,23.53
2023-07-23T07:46:00.772Z,23.40
2023-07-23T07:51:06.018Z,23.39
2023-07-23T07:56:15.237Z,23.38
2023-07-23T08:01:20.841Z,23.37
2023-07-23T08:11:46.936Z,23.34
2023-07-23T08:16:55.407Z,23.36
2023-07-23T08:21:59.421Z,23.37
2023-07-23T08:27:03.645Z,23.39
2023-07-23T08:32:11.301Z,23.40
2023-07-23T08:37:15.233Z,23.48
2023-07-23T08:42:59.621Z,23.49
2023-07-23T08:48:16.956Z,23.55
2023-07-23T08:53:20.778Z,23.55
2023-07-23T08:58:24.356Z,23.56
2023-07-23T09:08:52.967Z,23.63
2023-07-23T09:13:59.645Z,23.69
2023-07-23T09:19:04.487Z,23.76
2023-07-23T09:24:10.853Z,23.75
2023-07-23T09:29:14.404Z,23.75
2023-07-23T09:34:22.522Z,23.79
2023-07-23T09:39:28.587Z,23.84
2023-07-23T09:44:32.132Z,23.88
2023-07-23T09:49:39.192Z,23.88
2023-07-23T09:54:42.965Z,23.88
2023-07-23T09:59:47.782Z,23.90
2023-07-23T10:04:52.708Z,23.91
2023-07-23T10:15:18.837Z,23.83
2023-07-23T10:20:24.432Z,23.85
2023-07-23T10:25:34.511Z,23.87
2023-07-23T10:30:40.387Z,23.91
2023-07-23T10:36:03.773Z,23.93
2023-07-23T10:41:08.464Z,23.93
2023-07-23T10:51:43.759Z,23.93
2023-07-23T10:56:48.079Z,23.96
2023-07-23T11:01:52.606Z,23.98
2023-07-23T11:06:58.944Z,24.00
2023-07-23T11:12:02.748Z,24.02
2023-07-23T11:17:06.763Z,24.02
2023-07-23T11:22:12.417Z,24.03
2023-07-23T11:27:18.620Z,24.05
2023-07-23T11:32:23.544Z,24.07
2023-07-23T11:37:28.594Z,24.07
2023-07-23T11:42:34.629Z,24.08
2023-07-23T11:47:49.790Z,24.09
2023-07-23T11:52:56.279Z,24.12
2023-07-23T11:58:00.897Z,24.12
2023-07-23T12:03:05.358Z,24.11
2023-07-23T12:08:10.461Z,24.12
2023-07-23T12:18:48.900Z,24.14
2023-07-23T12:23:54.771Z,24.14
2023-07-23T12:28:58.756Z,24.15
2023-07-23T12:34:02.248Z,24.16
2023-07-23T12:39:07.632Z,24.16
2023-07-23T12:44:11.191Z,24.18
2023-07-23T12:49:14.698Z,24.17
2023-07-23T12:54:19.647Z,24.18
2023-07-23T12:59:23.228Z,24.18
2023-07-23T13:04:26.730Z,24.18
2023-07-23T13:09:31.682Z,24.19
2023-07-23T13:19:56.049Z,24.21
2023-07-23T13:25:00.896Z,24.24
2023-07-23T13:30:04.550Z,24.24
2023-07-23T13:35:08.857Z,24.25
2023-07-23T13:40:14.021Z,24.27
2023-07-23T13:45:17.603Z,24.24
2023-07-23T13:50:21.060Z,24.26
2023-07-23T13:55:25.946Z,24.26
2023-07-23T14:00:29.481Z,24.25
2023-07-23T14:05:34.145Z,24.25
2023-07-23T14:10:39.283Z,24.27
2023-07-23T14:15:42.981Z,24.26
2023-07-23T14:20:46.588Z,24.27
2023-07-23T14:25:53.113Z,24.25
2023-07-23T14:30:57.033Z,24.25
2023-07-23T14:36:01.375Z,24.27
2023-07-23T14:41:06.215Z,24.29
2023-07-23T14:46:09.691Z,24.27
2023-07-23T14:51:13.131Z,24.26
2023-07-23T14:56:18.211Z,24.28
2023-07-23T15:06:43.212Z,24.30
2023-07-23T15:11:49.131Z,24.28
2023-07-23T15:16:53.060Z,24.26
2023-07-23T15:21:57.186Z,24.27
2023-07-23T15:27:05.531Z,24.34
2023-07-23T15:32:09.872Z,24.23
2023-07-23T15:37:13.354Z,24.16
2023-07-23T15:42:18.260Z,24.14
2023-07-23T15:47:22.114Z,24.14
2023-07-23T15:52:25.588Z,24.15
2023-07-23T15:57:30.460Z,24.14
2023-07-23T16:07:54.983Z,24.14
2023-07-23T16:13:00.074Z,24.14
2023-07-23T16:18:04.573Z,24.14
2023-07-23T16:28:30.906Z,24.14
2023-07-23T16:33:35.044Z,24.14
2023-07-23T16:44:02.638Z,24.14
2023-07-23T16:54:26.788Z,24.14
2023-07-23T16:59:31.809Z,24.15
2023-07-23T17:04:35.386Z,24.15
2023-07-23T17:09:40.076Z,24.15
2023-07-23T17:14:44.918Z,24.15
2023-07-23T17:19:48.523Z,24.16
2023-07-23T17:30:14.756Z,24.17
2023-07-23T17:35:18.201Z,24.17
2023-07-23T17:40:21.637Z,24.16
2023-07-23T17:45:26.545Z,24.17
2023-07-23T17:50:29.961Z,24.17
2023-07-23T17:55:35.856Z,24.16
2023-07-23T18:00:40.757Z,24.17
2023-07-23T18:05:44.204Z,24.16
2023-07-23T18:10:47.718Z,24.17
2023-07-23T18:15:52.718Z,24.16
2023-07-23T18:20:56.159Z,24.17
2023-07-23T18:26:05.740Z,24.17
2023-07-23T18:31:25.151Z,24.17
2023-07-23T18:36:35.586Z,24.17
2023-07-23T18:41:39.118Z,24.17
2023-07-23T18:46:44.138Z,24.17
2023-07-23T18:57:08.901Z,24.17
2023-07-23T19:02:13.751Z,24.17
2023-07-23T19:07:17.219Z,24.18
2023-07-23T19:12:20.648Z,24.17
2023-07-23T19:17:25.534Z,24.17
2023-07-23T19:22:28.974Z,24.18
2023-07-23T19:27:32.443Z,24.18
2023-07-23T19:32:37.340Z,24.18
2023-07-23T19:37:40.998Z,24.17
2023-07-23T19:42:44.457Z,24.17
2023-07-23T19:47:49.763Z,24.18
2023-07-23T19:52:53.288Z,24.18
2023-07-23T19:57:57.037Z,24.18
2023-07-23T20:03:02.331Z,24.18
2023-07-23T20:08:06.053Z,24.17
2023-07-23T20:13:09.511Z,24.17
2023-07-23T20:18:14.459Z,24.18
2023-07-23T20:23:18.081Z,24.17
2023-07-23T20:28:21.878Z,24.19
2023-07-23T20:33:27.748Z,24.17
2023-07-23T20:38:31.817Z,24.18
2023-07-23T20:43:35.361Z,24.20
2023-07-23T20:54:01.147Z,24.18
2023-07-23T20:59:05.989Z,24.18
2023-07-23T21:09:33.752Z,24.17
2023-07-23T21:14:38.971Z,24.18
2023-07-23T21:19:43.890Z,24.19
2023-07-23T21:24:47.449Z,24.19
2023-07-23T21:29:51.096Z,24.18
2023-07-23T21:34:55.944Z,24.18
2023-07-23T21:39:59.463Z,24.18
2023-07-23T21:50:25.246Z,24.19
2023-07-23T21:55:28.689Z,24.18
2023-07-23T22:00:32.193Z,24.18
2023-07-23T22:10:57.651Z,24.19
2023-07-23T22:16:01.113Z,24.18
2023-07-23T22:21:05.990Z,24.18
2023-07-23T22:26:09.440Z,24.18
2023-07-23T22:31:12.901Z,24.18
2023-07-23T22:36:17.742Z,24.19
2023-07-23T22:41:21.476Z,24.17
2023-07-23T22:46:25.962Z,24.19
2023-07-23T22:51:31.322Z,24.19
2023-07-23T22:56:34.784Z,24.18
2023-07-23T23:01:38.385Z,24.17
2023-07-23T23:12:05.997Z,24.17
2023-07-23T23:17:09.454Z,24.16
2023-07-23T23:22:14.265Z,24.17
2023-07-23T23:27:19.788Z,24.17
2023-07-23T23:32:23.210Z,24.17
2023-07-23T23:37:28.030Z,24.17
2023-07-23T23:42:31.493Z,24.17
2023-07-23T23:47:34.963Z,24.16
2023-07-23T23:52:39.803Z,24.18
2023-07-23T23:57:43.227Z,24.16
